createdAt,value
2018-07-06T00:01:24.504Z,5.97
2018-07-06T00:04:04.185Z,4.27
2018-07-06T00:06:43.907Z,4.63
2018-07-06T00:09:23.584Z,3.93
2018-07-06T00:12:03.382Z,4.37
2018-07-06T00:14:43.223Z,5.27
2018-07-06T00:17:22.980Z,6.77
2018-07-06T00:20:02.570Z,5.10
2018-07-06T00:22:42.336Z,5.93
2018-07-06T00:25:22.120Z,5.47
2018-07-06T00:28:01.853Z,5.33
2018-07-06T00:30:41.452Z,5.90
2018-07-06T00:33:21.224Z,6.63
2018-07-06T00:36:00.988Z,7.03
2018-07-06T00:38:40.609Z,6.60
2018-07-06T00:41:20.210Z,6.33
2018-07-06T00:43:59.939Z,5.73
2018-07-06T00:46:39.794Z,7.60
2018-07-06T00:49:19.809Z,6.57
2018-07-06T00:51:59.410Z,6.97
2018-07-06T00:54:39.197Z,7.97
2018-07-06T00:57:19.104Z,9.80
2018-07-06T00:59:58.611Z,8.87
2018-07-06T01:02:38.425Z,8.70
2018-07-06T01:05:18.017Z,8.10
2018-07-06T01:07:57.925Z,8.83
2018-07-06T01:10:37.704Z,9.37
2018-07-06T01:13:17.385Z,9.10
2018-07-06T01:15:56.947Z,8.93
2018-07-06T01:18:36.598Z,7.67
2018-07-06T01:21:16.423Z,9.60
2018-07-06T01:23:56.237Z,9.63
2018-07-06T01:26:36.047Z,10.37
2018-07-06T01:29:15.707Z,9.60
2018-07-06T01:31:55.349Z,10.90
2018-07-06T01:34:34.939Z,11.77
2018-07-06T01:37:14.667Z,9.33
2018-07-06T01:39:54.384Z,8.90
2018-07-06T01:42:34.147Z,12.50
2018-07-06T01:45:07.898Z,10.30
2018-07-06T01:47:47.500Z,9.97
2018-07-06T01:50:27.149Z,12.67
2018-07-06T01:53:06.899Z,13.40
2018-07-06T01:55:46.500Z,14.57
2018-07-06T01:58:26.146Z,12.63
2018-07-06T02:01:05.732Z,12.40
2018-07-06T02:03:45.369Z,12.50
2018-07-06T02:06:25.305Z,14.17
2018-07-06T02:09:05.096Z,12.27
2018-07-06T02:11:45.031Z,12.43
2018-07-06T02:14:24.747Z,13.13
2018-07-06T02:17:04.529Z,10.50
2018-07-06T02:19:44.345Z,12.50
2018-07-06T02:22:24.088Z,11.40
2018-07-06T02:25:03.808Z,10.83
2018-07-06T02:27:37.466Z,10.43
2018-07-06T02:30:17.340Z,8.97
2018-07-06T02:32:56.883Z,10.93
2018-07-06T02:35:36.509Z,10.77
2018-07-06T02:38:16.326Z,11.17
2018-07-06T02:40:56.167Z,10.77
2018-07-06T02:43:35.784Z,14.70
2018-07-06T02:46:15.702Z,11.27
2018-07-06T02:48:55.988Z,13.53
2018-07-06T02:51:36.004Z,15.50
2018-07-06T02:54:09.973Z,11.40
2018-07-06T02:56:49.819Z,11.77
2018-07-06T02:59:29.481Z,15.60
2018-07-06T03:02:09.102Z,12.60
2018-07-06T03:04:42.685Z,12.87
2018-07-06T03:07:22.386Z,13.83
2018-07-06T03:10:02.133Z,15.07
2018-07-06T03:12:41.930Z,13.43
2018-07-06T03:15:21.633Z,14.57
2018-07-06T03:18:01.319Z,13.73
2018-07-06T03:20:40.897Z,16.00
2018-07-06T03:23:20.756Z,9.43
2018-07-06T03:26:00.592Z,11.03
2018-07-06T03:28:40.458Z,11.57
2018-07-06T03:31:19.975Z,11.17
2018-07-06T03:34:00.142Z,12.60
2018-07-06T03:36:33.961Z,10.40
2018-07-06T03:39:13.900Z,15.27
2018-07-06T03:41:53.781Z,14.93
2018-07-06T03:44:33.560Z,11.33
2018-07-06T03:47:13.302Z,13.50
2018-07-06T03:49:52.924Z,15.03
2018-07-06T03:52:32.590Z,14.33
2018-07-06T03:55:12.168Z,13.73
2018-07-06T03:57:52.064Z,17.40
2018-07-06T04:00:31.888Z,13.90
2018-07-06T04:03:11.573Z,16.83
2018-07-06T04:05:51.100Z,13.27
2018-07-06T04:08:24.923Z,17.53
2018-07-06T04:11:04.815Z,17.87
2018-07-06T04:13:44.472Z,14.73
2018-07-06T04:16:24.108Z,17.37
2018-07-06T04:19:08.220Z,19.03
2018-07-06T04:21:48.069Z,20.60
2018-07-06T04:24:28.052Z,18.63
2018-07-06T04:27:07.732Z,15.23
2018-07-06T04:29:47.569Z,18.43
2018-07-06T04:32:27.428Z,16.00
2018-07-06T04:35:07.152Z,14.60
2018-07-06T04:37:47.068Z,15.10
2018-07-06T04:40:26.866Z,23.50
2018-07-06T04:43:07.443Z,16.90
2018-07-06T04:45:47.856Z,16.27
2018-07-06T04:48:27.752Z,14.83
2018-07-06T04:51:01.641Z,20.03
2018-07-06T04:53:41.231Z,18.60
2018-07-06T04:56:21.060Z,16.33
2018-07-06T04:59:00.648Z,20.30
2018-07-06T05:01:40.256Z,21.13
2018-07-06T05:04:19.885Z,17.67
2018-07-06T05:06:59.727Z,13.30
2018-07-06T05:09:39.395Z,13.47
2018-07-06T05:12:19.280Z,19.53
2018-07-06T05:14:59.144Z,19.53
2018-07-06T05:17:39.283Z,14.50
2018-07-06T05:20:12.932Z,15.87
2018-07-06T05:22:52.877Z,14.33
2018-07-06T05:25:32.710Z,13.40
2018-07-06T05:28:06.439Z,11.73
2018-07-06T05:30:46.231Z,15.90
2018-07-06T05:33:26.006Z,19.77
2018-07-06T05:36:06.021Z,19.50
2018-07-06T05:38:45.939Z,12.20
2018-07-06T05:41:25.868Z,14.57
2018-07-06T05:44:06.452Z,13.97
2018-07-06T05:46:46.225Z,13.37
2018-07-06T05:49:26.103Z,13.00
2018-07-06T05:51:59.892Z,12.40
2018-07-06T05:54:33.840Z,13.97
2018-07-06T05:57:13.657Z,15.00
2018-07-06T05:59:53.110Z,13.20
2018-07-06T06:02:32.853Z,14.83
2018-07-06T06:05:12.510Z,16.23
2018-07-06T06:07:39.941Z,12.97
2018-07-06T06:10:09.105Z,15.87
2018-07-06T06:12:37.940Z,15.97
2018-07-06T06:15:07.010Z,15.70
2018-07-06T06:17:35.945Z,14.47
2018-07-06T06:20:04.803Z,11.73
2018-07-06T06:22:33.430Z,18.13
2018-07-06T06:25:02.397Z,9.63
2018-07-06T06:27:31.227Z,13.97
2018-07-06T06:29:59.968Z,12.23
2018-07-06T06:32:28.640Z,10.57
2018-07-06T06:34:57.430Z,12.20
2018-07-06T06:37:26.053Z,13.87
2018-07-06T06:39:54.676Z,14.87
2018-07-06T06:42:23.228Z,10.80
2018-07-06T06:44:51.955Z,13.60
2018-07-06T06:47:20.845Z,13.13
2018-07-06T06:49:50.748Z,15.57
2018-07-06T06:52:19.084Z,14.60
2018-07-06T06:54:48.095Z,9.80
2018-07-06T07:42:51.370Z,11.67
2018-07-06T07:45:19.983Z,13.20
2018-07-06T07:47:48.710Z,10.17
2018-07-06T07:50:17.327Z,12.33
2018-07-06T07:52:50.907Z,11.37
2018-07-06T07:55:19.304Z,13.27
2018-07-06T07:57:47.738Z,10.80
2018-07-06T08:00:16.073Z,14.10
2018-07-06T08:02:44.406Z,11.60
2018-07-06T08:05:12.412Z,12.73
2018-07-06T08:07:40.721Z,11.03
2018-07-06T08:10:10.808Z,9.10
2018-07-06T08:12:39.662Z,11.17
2018-07-06T08:15:10.079Z,13.20
2018-07-06T08:17:40.400Z,10.87
2018-07-06T08:20:10.002Z,10.23
2018-07-06T08:22:39.568Z,10.20
2018-07-06T08:25:08.871Z,12.43
2018-07-06T08:27:39.216Z,8.20
2018-07-06T08:30:08.559Z,10.77
2018-07-06T08:32:36.661Z,10.37
2018-07-06T08:35:10.302Z,11.90
2018-07-06T08:37:51.947Z,9.10
2018-07-06T08:40:21.210Z,13.27
2018-07-06T08:42:52.026Z,7.40
2018-07-06T08:45:20.317Z,8.00
2018-07-06T08:47:49.078Z,11.67
2018-07-06T08:50:17.619Z,10.23
2018-07-06T08:52:47.196Z,8.33
2018-07-06T08:55:15.669Z,10.10
2018-07-06T08:57:44.940Z,9.77
2018-07-06T09:00:13.464Z,10.10
2018-07-06T09:02:42.035Z,9.93
2018-07-06T09:05:11.122Z,9.73
2018-07-06T09:07:39.472Z,8.93
2018-07-06T09:10:07.732Z,10.00
2018-07-06T09:12:36.140Z,10.50
2018-07-06T09:15:05.028Z,10.37
2018-07-06T09:17:33.582Z,8.43
2018-07-06T09:20:02.579Z,10.00
2018-07-06T09:22:30.743Z,7.53
2018-07-06T09:25:06.969Z,9.27
2018-07-06T09:27:35.287Z,7.30
2018-07-06T09:30:03.673Z,7.83
2018-07-06T09:32:32.080Z,7.40
2018-07-06T09:35:00.377Z,9.67
2018-07-06T09:37:28.729Z,7.10
2018-07-06T09:39:56.760Z,9.80
2018-07-06T09:42:25.048Z,9.20
2018-07-06T09:44:53.576Z,9.07
2018-07-06T09:47:21.448Z,10.57
2018-07-06T09:49:49.728Z,9.67
2018-07-06T09:52:18.000Z,7.90
2018-07-06T09:54:46.339Z,10.50
2018-07-06T09:57:14.415Z,6.70
2018-07-06T09:59:42.736Z,10.93
2018-07-06T10:02:11.071Z,6.87
2018-07-06T10:04:39.373Z,9.27
2018-07-06T10:07:07.695Z,8.27
2018-07-06T10:09:36.016Z,9.07
2018-07-06T10:12:04.329Z,8.07
2018-07-06T10:14:32.792Z,7.40
2018-07-06T10:17:01.106Z,9.87
2018-07-06T10:19:29.470Z,9.23
2018-07-06T10:21:57.736Z,7.27
2018-07-06T10:24:25.791Z,7.47
2018-07-06T10:26:54.106Z,8.57
2018-07-06T10:29:33.778Z,8.60
2018-07-06T10:32:15.783Z,10.20
2018-07-06T10:34:44.158Z,7.10
2018-07-06T10:37:12.508Z,7.53
2018-07-06T10:39:40.835Z,8.87
2018-07-06T10:42:09.103Z,8.03
2018-07-06T10:44:37.445Z,10.17
2018-07-06T10:47:05.748Z,6.90
2018-07-06T10:49:34.100Z,6.03
2018-07-06T10:52:02.432Z,6.57
2018-07-06T10:54:30.712Z,7.80
2018-07-06T10:56:59.038Z,6.43
2018-07-06T10:59:27.869Z,5.97
2018-07-06T11:01:56.076Z,7.23
2018-07-06T11:04:24.479Z,6.13
2018-07-06T11:06:52.809Z,7.00
2018-07-06T11:09:21.088Z,7.77
2018-07-06T11:11:50.059Z,9.47
2018-07-06T11:14:18.453Z,6.00
2018-07-06T11:16:46.829Z,7.10
2018-07-06T11:19:15.218Z,7.00
2018-07-06T11:21:43.895Z,7.13
2018-07-06T11:24:12.265Z,8.20
2018-07-06T11:26:40.576Z,8.33
2018-07-06T11:29:11.355Z,6.23
2018-07-06T11:31:39.710Z,7.60
2018-07-06T11:34:08.482Z,7.13
2018-07-06T11:36:36.877Z,9.37
2018-07-06T11:39:05.855Z,6.37
2018-07-06T11:41:34.347Z,6.57
2018-07-06T11:44:02.703Z,6.37
2018-07-06T11:46:31.006Z,6.97
2018-07-06T11:49:03.815Z,5.30
2018-07-06T11:51:32.344Z,5.23
2018-07-06T11:54:00.619Z,6.10
2018-07-06T11:56:34.099Z,5.17
2018-07-06T11:59:02.388Z,4.93
2018-07-06T12:01:30.688Z,4.73
2018-07-06T12:03:59.017Z,7.73
2018-07-06T12:06:27.240Z,4.80
2018-07-06T12:08:55.598Z,4.50
2018-07-06T12:11:23.631Z,6.53
2018-07-06T12:13:52.029Z,6.50
2018-07-06T12:16:20.320Z,4.70
2018-07-06T12:18:48.680Z,5.93
2018-07-06T12:21:17.138Z,4.73
2018-07-06T12:23:45.415Z,6.90
2018-07-06T12:26:13.698Z,6.13
2018-07-06T12:28:42.031Z,5.50
2018-07-06T12:31:10.363Z,3.60
2018-07-06T12:33:38.685Z,5.07
2018-07-06T12:36:06.767Z,4.50
2018-07-06T12:38:34.789Z,5.43
2018-07-06T12:41:03.111Z,4.90
2018-07-06T12:43:31.377Z,4.47
2018-07-06T12:45:59.803Z,7.20
2018-07-06T12:48:28.229Z,5.20
2018-07-06T12:50:56.228Z,4.03
2018-07-06T12:53:24.579Z,7.57
2018-07-06T12:55:52.832Z,5.63
2018-07-06T12:58:21.173Z,4.73
2018-07-06T13:00:49.534Z,3.77
2018-07-06T13:03:17.947Z,3.80
2018-07-06T13:05:45.993Z,4.83
2018-07-06T13:08:14.324Z,4.57
2018-07-06T13:10:42.644Z,3.23
2018-07-06T13:13:10.983Z,4.53
2018-07-06T13:15:39.305Z,4.57
2018-07-06T13:18:08.183Z,4.90
2018-07-06T13:20:36.192Z,4.20
2018-07-06T13:23:04.579Z,4.30
2018-07-06T13:25:32.877Z,3.93
2018-07-06T13:28:01.405Z,3.73
2018-07-06T13:30:29.706Z,4.43
2018-07-06T13:32:58.452Z,6.03
2018-07-06T13:35:26.827Z,4.17
2018-07-06T13:37:54.966Z,7.97
2018-07-06T13:40:23.257Z,5.27
2018-07-06T13:42:51.599Z,5.00
2018-07-06T13:45:19.648Z,5.13
2018-07-06T13:47:48.021Z,4.97
2018-07-06T13:50:16.560Z,4.93
2018-07-06T13:52:44.646Z,3.70
2018-07-06T13:55:13.041Z,4.13
2018-07-06T13:57:41.088Z,3.83
2018-07-06T14:00:09.365Z,5.20
2018-07-06T14:02:37.635Z,2.80
2018-07-06T14:05:05.910Z,3.20
2018-07-06T14:07:34.200Z,3.07
2018-07-06T14:10:02.600Z,4.90
2018-07-06T14:12:30.892Z,4.93
2018-07-06T14:14:59.160Z,5.87
2018-07-06T14:17:27.485Z,4.63
2018-07-06T14:19:55.755Z,4.40
2018-07-06T14:22:24.063Z,2.33
2018-07-06T14:24:52.420Z,4.23
2018-07-06T14:27:20.691Z,2.87
2018-07-06T14:29:49.043Z,3.23
2018-07-06T14:32:17.340Z,4.33
2018-07-06T14:34:45.821Z,2.43
2018-07-06T14:37:14.101Z,2.70
2018-07-06T14:39:42.396Z,3.80
2018-07-06T14:42:10.907Z,3.70
2018-07-06T14:44:39.252Z,4.37
2018-07-06T14:47:07.918Z,3.73
2018-07-06T14:49:36.949Z,3.50
2018-07-06T14:52:06.420Z,3.47
2018-07-06T14:54:34.753Z,3.03
2018-07-06T14:57:03.124Z,4.70
2018-07-06T14:59:31.207Z,4.17
2018-07-06T15:01:59.513Z,2.37
2018-07-06T15:04:28.958Z,3.20
2018-07-06T15:06:57.273Z,5.53
2018-07-06T15:09:25.484Z,4.73
2018-07-06T15:11:53.902Z,2.93
2018-07-06T15:14:22.189Z,2.97
2018-07-06T15:16:50.468Z,4.23
2018-07-06T15:19:18.783Z,5.40
2018-07-06T15:21:47.068Z,2.97
2018-07-06T15:24:15.505Z,2.47
2018-07-06T15:26:43.784Z,5.07
2018-07-06T15:29:12.132Z,5.97
2018-07-06T15:31:40.439Z,4.23
2018-07-06T15:34:08.787Z,3.30
2018-07-06T15:36:36.840Z,3.70
2018-07-06T15:39:05.706Z,3.33
2018-07-06T15:41:34.621Z,4.17
2018-07-06T15:44:04.661Z,4.63
2018-07-06T15:46:33.430Z,6.97
2018-07-06T15:49:33.455Z,3.70
2018-07-06T15:54:37.395Z,3.23
2018-07-06T15:57:06.166Z,3.23
2018-07-06T15:59:34.651Z,6.00
2018-07-06T16:02:07.265Z,4.40
2018-07-06T16:04:35.597Z,2.67
2018-07-06T16:07:03.828Z,3.00
2018-07-06T16:09:32.117Z,4.93
2018-07-06T16:12:00.380Z,4.20
2018-07-06T16:14:28.653Z,2.93
2018-07-06T16:16:56.943Z,3.07
2018-07-06T16:19:25.254Z,2.70
2018-07-06T16:21:53.668Z,3.07
2018-07-06T16:24:21.961Z,4.13
2018-07-06T16:26:50.220Z,5.23
2018-07-06T16:29:18.496Z,2.57
2018-07-06T16:31:46.807Z,3.73
2018-07-06T16:34:15.187Z,2.73
2018-07-06T16:36:43.635Z,5.00
2018-07-06T16:39:11.990Z,5.37
2018-07-06T16:41:40.130Z,5.40
2018-07-06T16:44:09.496Z,5.90
2018-07-06T16:46:44.169Z,5.13
2018-07-06T16:49:12.450Z,2.97
2018-07-06T16:51:40.888Z,4.27
2018-07-06T16:54:09.236Z,4.23
2018-07-06T16:56:37.520Z,5.50
2018-07-06T16:59:05.872Z,5.33
2018-07-06T17:01:34.179Z,4.57
2018-07-06T17:04:02.219Z,4.77
2018-07-06T17:06:31.096Z,5.27
2018-07-06T17:08:59.424Z,5.73
2018-07-06T17:11:27.768Z,4.53
2018-07-06T17:13:56.046Z,4.03
2018-07-06T17:16:24.391Z,4.70
2018-07-06T17:18:52.704Z,8.07
2018-07-06T17:21:20.957Z,8.23
2018-07-06T17:23:49.323Z,4.20
2018-07-06T17:26:17.765Z,5.47
2018-07-06T17:28:46.078Z,6.43
2018-07-06T17:31:14.288Z,9.43
2018-07-06T17:33:42.714Z,7.93
2018-07-06T17:36:11.024Z,6.23
2018-07-06T17:38:39.438Z,5.33
2018-07-06T17:41:07.831Z,4.70
2018-07-06T17:43:36.224Z,6.47
2018-07-06T17:46:04.737Z,6.17
2018-07-06T17:48:33.068Z,4.27
2018-07-06T17:51:01.415Z,5.63
2018-07-06T17:53:29.866Z,6.57
2018-07-06T17:55:58.266Z,6.40
2018-07-06T17:58:26.600Z,5.73
2018-07-06T18:01:06.855Z,4.10
2018-07-06T18:03:35.186Z,7.90
2018-07-06T18:06:03.479Z,6.30
2018-07-06T18:08:31.899Z,6.80
2018-07-06T18:10:59.993Z,7.27
2018-07-06T18:13:28.318Z,4.03
2018-07-06T18:15:56.684Z,5.83
2018-07-06T18:18:25.088Z,6.00
2018-07-06T18:20:53.951Z,6.37
2018-07-06T18:23:22.063Z,6.60
2018-07-06T18:25:51.213Z,6.47
2018-07-06T18:28:19.518Z,5.50
2018-07-06T18:30:47.831Z,5.77
2018-07-06T18:33:15.872Z,7.03
2018-07-06T18:35:44.280Z,6.67
2018-07-06T18:38:13.057Z,6.63
2018-07-06T18:40:41.988Z,4.67
2018-07-06T18:43:11.152Z,6.17
2018-07-06T18:45:40.299Z,7.80
2018-07-06T18:48:08.639Z,8.70
2018-07-06T18:50:37.539Z,5.77
2018-07-06T18:53:05.917Z,5.00
2018-07-06T18:55:34.569Z,4.03
2018-07-06T18:58:02.927Z,6.77
2018-07-06T19:00:36.686Z,4.93
2018-07-06T19:03:05.166Z,7.03
2018-07-06T19:05:33.523Z,6.10
2018-07-06T19:08:01.878Z,7.50
2018-07-06T19:10:30.188Z,6.77
2018-07-06T19:12:58.269Z,10.97
2018-07-06T19:15:26.657Z,5.70
2018-07-06T19:17:54.752Z,10.40
2018-07-06T19:20:23.034Z,7.87
2018-07-06T19:22:51.143Z,4.67
2018-07-06T19:25:19.659Z,5.87
2018-07-06T19:27:48.046Z,6.83
2018-07-06T19:30:16.400Z,7.07
2018-07-06T19:32:44.727Z,8.10
2018-07-06T19:35:13.042Z,5.33
2018-07-06T19:37:41.600Z,5.67
2018-07-06T19:40:10.693Z,6.43
2018-07-06T19:42:39.101Z,3.17
2018-07-06T19:45:07.507Z,5.47
2018-07-06T19:47:35.822Z,4.60
2018-07-06T19:50:04.124Z,5.43
2018-07-06T19:52:32.182Z,6.53
2018-07-06T19:55:00.677Z,9.50
2018-07-06T19:57:29.137Z,5.27
2018-07-06T19:59:57.456Z,5.93
2018-07-06T20:02:25.837Z,3.83
2018-07-06T20:04:54.304Z,4.80
2018-07-06T20:07:22.675Z,5.83
2018-07-06T20:09:51.128Z,8.97
2018-07-06T20:12:19.505Z,4.07
2018-07-06T20:14:48.156Z,6.17
2018-07-06T20:17:16.584Z,6.97
2018-07-06T20:19:44.958Z,9.40
2018-07-06T20:22:13.516Z,8.67
2018-07-06T20:24:41.896Z,8.60
2018-07-06T20:27:10.748Z,6.13
2018-07-06T20:29:39.560Z,6.77
2018-07-06T20:32:08.428Z,8.00
2018-07-06T20:34:36.693Z,7.40
2018-07-06T20:37:05.470Z,11.03
2018-07-06T20:39:33.886Z,11.30
2018-07-06T20:42:02.332Z,7.10
2018-07-06T20:44:30.963Z,7.50
2018-07-06T20:46:59.394Z,11.27
2018-07-06T20:49:27.742Z,9.23
2018-07-06T20:51:56.168Z,7.03
2018-07-06T20:54:24.275Z,8.10
2018-07-06T20:56:52.865Z,12.37
2018-07-06T20:59:21.244Z,12.03
2018-07-06T21:01:49.721Z,9.40
2018-07-06T21:04:18.207Z,10.37
2018-07-06T21:06:46.554Z,9.97
2018-07-06T21:09:15.012Z,10.77
2018-07-06T21:11:43.424Z,8.17
2018-07-06T21:14:11.860Z,8.00
2018-07-06T21:16:40.212Z,8.87
2018-07-06T21:19:08.805Z,10.47
2018-07-06T21:21:37.317Z,11.87
2018-07-06T21:24:05.782Z,13.73
2018-07-06T21:26:34.239Z,13.27
2018-07-06T21:29:02.611Z,9.70
2018-07-06T21:31:31.025Z,8.10
2018-07-06T21:33:59.212Z,10.77
2018-07-06T21:36:27.560Z,7.53
2018-07-06T21:38:55.967Z,8.23
2018-07-06T21:41:24.338Z,10.80
2018-07-06T21:43:52.860Z,8.97
2018-07-06T21:46:21.208Z,12.23
2018-07-06T21:48:49.876Z,11.23
2018-07-06T21:51:18.207Z,10.43
2018-07-06T21:53:46.697Z,12.47
2018-07-06T21:56:15.173Z,7.80
2018-07-06T21:58:43.595Z,8.57
2018-07-06T22:01:24.229Z,6.80
2018-07-06T22:03:54.818Z,7.80
2018-07-06T22:06:27.533Z,9.77
2018-07-06T22:08:59.533Z,8.03
2018-07-06T22:14:48.355Z,11.57
2018-07-06T22:17:16.693Z,10.17
2018-07-06T22:26:38.680Z,10.37
2018-07-06T22:29:08.112Z,9.20
2018-07-06T22:31:37.202Z,10.53
2018-07-06T22:34:06.153Z,11.33
2018-07-06T22:36:34.938Z,9.63
2018-07-06T22:39:03.404Z,8.57
2018-07-06T22:41:31.777Z,8.77
2018-07-06T22:44:00.417Z,7.27
2018-07-06T22:46:28.844Z,9.07
2018-07-06T22:48:57.277Z,6.53
2018-07-06T22:51:25.916Z,9.50
2018-07-06T22:53:54.620Z,5.63
2018-07-06T22:56:23.265Z,6.47
2018-07-06T22:58:51.797Z,7.03
2018-07-06T23:01:20.787Z,6.67
2018-07-06T23:03:49.816Z,6.70
2018-07-06T23:06:19.255Z,10.00
2018-07-06T23:08:48.421Z,6.07
2018-07-06T23:11:17.070Z,9.47
2018-07-06T23:13:45.392Z,3.77
2018-07-06T23:16:14.494Z,7.63
2018-07-06T23:18:43.204Z,5.80
2018-07-06T23:21:12.056Z,10.10
2018-07-06T23:23:41.006Z,7.30
2018-07-06T23:26:09.649Z,11.40
2018-07-06T23:28:38.326Z,7.97
2018-07-06T23:31:06.998Z,5.87
2018-07-06T23:33:36.036Z,6.30
2018-07-06T23:36:05.961Z,5.33
2018-07-06T23:38:35.411Z,6.17
2018-07-06T23:41:04.165Z,5.50
2018-07-06T23:43:32.695Z,3.63
2018-07-06T23:46:01.465Z,7.60
2018-07-06T23:48:30.693Z,7.60
2018-07-06T23:50:59.407Z,6.73
2018-07-06T23:53:27.787Z,2.87
2018-07-06T23:55:56.487Z,5.93
2018-07-06T23:58:25.166Z,5.07
